sensor_id;sensor_type;location;lat;lon;timestamp;P1;durP1;ratioP1;P2;durP2;ratioP2
31730;SDS011;18310;55.586;12.286;2022-11-20T00:02:29;2.35;;;0.80;;
31730;SDS011;18310;55.586;12.286;2022-11-20T00:05:33;1.40;;;0.70;;
31730;SDS011;18310;55.586;12.286;2022-11-20T00:08:36;3.28;;;1.00;;
31730;SDS011;18310;55.586;12.286;2022-11-20T00:11:42;2.13;;;0.93;;
31730;SDS011;18310;55.586;12.286;2022-11-20T00:14:45;4.90;;;1.02;;
31730;SDS011;18310;55.586;12.286;2022-11-20T00:17:49;3.40;;;1.10;;
31730;SDS011;18310;55.586;12.286;2022-11-20T00:20:53;2.42;;;1.05;;
31730;SDS011;18310;55.586;12.286;2022-11-20T00:24:03;2.45;;;0.82;;
31730;SDS011;18310;55.586;12.286;2022-11-20T00:27:09;3.53;;;1.00;;
31730;SDS011;18310;55.586;12.286;2022-11-20T00:30:12;3.05;;;1.20;;
31730;SDS011;18310;55.586;12.286;2022-11-20T00:33:16;6.68;;;1.65;;
31730;SDS011;18310;55.586;12.286;2022-11-20T00:36:20;4.63;;;1.60;;
31730;SDS011;18310;55.586;12.286;2022-11-20T00:39:27;2.47;;;1.10;;
31730;SDS011;18310;55.586;12.286;2022-11-20T00:42:32;2.40;;;1.10;;
31730;SDS011;18310;55.586;12.286;2022-11-20T00:45:35;3.78;;;0.82;;
31730;SDS011;18310;55.586;12.286;2022-11-20T00:48:38;2.40;;;1.03;;
31730;SDS011;18310;55.586;12.286;2022-11-20T00:54:46;1.55;;;0.77;;
31730;SDS011;18310;55.586;12.286;2022-11-20T00:57:51;2.70;;;1.23;;
31730;SDS011;18310;55.586;12.286;2022-11-20T01:00:59;2.45;;;1.00;;
31730;SDS011;18310;55.586;12.286;2022-11-20T01:04:02;2.15;;;0.90;;
31730;SDS011;18310;55.586;12.286;2022-11-20T01:07:06;5.45;;;1.25;;
31730;SDS011;18310;55.586;12.286;2022-11-20T01:10:10;2.08;;;0.93;;
31730;SDS011;18310;55.586;12.286;2022-11-20T01:13:15;3.08;;;1.33;;
31730;SDS011;18310;55.586;12.286;2022-11-20T01:16:36;1.95;;;1.02;;
31730;SDS011;18310;55.586;12.286;2022-11-20T01:19:42;2.70;;;0.95;;
31730;SDS011;18310;55.586;12.286;2022-11-20T01:22:47;2.15;;;1.05;;
31730;SDS011;18310;55.586;12.286;2022-11-20T01:25:50;2.72;;;0.90;;
31730;SDS011;18310;55.586;12.286;2022-11-20T01:28:56;2.65;;;1.10;;
31730;SDS011;18310;55.586;12.286;2022-11-20T01:32:01;3.25;;;0.98;;
31730;SDS011;18310;55.586;12.286;2022-11-20T01:35:05;2.65;;;0.90;;
31730;SDS011;18310;55.586;12.286;2022-11-20T01:38:11;2.50;;;0.90;;
31730;SDS011;18310;55.586;12.286;2022-11-20T01:44:45;2.28;;;1.00;;
31730;SDS011;18310;55.586;12.286;2022-11-20T01:51:00;3.53;;;0.90;;
31730;SDS011;18310;55.586;12.286;2022-11-20T01:54:06;2.05;;;0.90;;
31730;SDS011;18310;55.586;12.286;2022-11-20T01:57:16;2.97;;;0.98;;
31730;SDS011;18310;55.586;12.286;2022-11-20T02:00:22;1.98;;;0.93;;
31730;SDS011;18310;55.586;12.286;2022-11-20T02:03:26;2.00;;;0.93;;
31730;SDS011;18310;55.586;12.286;2022-11-20T02:06:31;4.68;;;1.13;;
31730;SDS011;18310;55.586;12.286;2022-11-20T02:09:42;4.72;;;1.00;;
31730;SDS011;18310;55.586;12.286;2022-11-20T02:12:46;2.13;;;0.93;;
31730;SDS011;18310;55.586;12.286;2022-11-20T02:16:10;2.17;;;1.13;;
31730;SDS011;18310;55.586;12.286;2022-11-20T02:19:22;2.80;;;1.00;;
31730;SDS011;18310;55.586;12.286;2022-11-20T02:22:30;2.45;;;0.98;;
31730;SDS011;18310;55.586;12.286;2022-11-20T02:25:42;2.50;;;1.05;;
31730;SDS011;18310;55.586;12.286;2022-11-20T02:28:49;3.00;;;1.10;;
31730;SDS011;18310;55.586;12.286;2022-11-20T02:31:53;3.95;;;1.02;;
31730;SDS011;18310;55.586;12.286;2022-11-20T02:35:05;3.08;;;0.90;;
31730;SDS011;18310;55.586;12.286;2022-11-20T02:38:11;2.28;;;0.90;;
31730;SDS011;18310;55.586;12.286;2022-11-20T02:41:17;3.65;;;1.02;;
31730;SDS011;18310;55.586;12.286;2022-11-20T02:44:22;2.53;;;1.15;;
31730;SDS011;18310;55.586;12.286;2022-11-20T02:50:29;2.92;;;0.95;;
31730;SDS011;18310;55.586;12.286;2022-11-20T02:53:33;4.13;;;1.00;;
31730;SDS011;18310;55.586;12.286;2022-11-20T02:56:38;1.80;;;0.82;;
31730;SDS011;18310;55.586;12.286;2022-11-20T02:59:42;3.00;;;1.10;;
31730;SDS011;18310;55.586;12.286;2022-11-20T03:02:45;2.80;;;1.13;;
31730;SDS011;18310;55.586;12.286;2022-11-20T03:05:49;2.15;;;1.15;;
31730;SDS011;18310;55.586;12.286;2022-11-20T03:08:52;3.10;;;1.10;;
31730;SDS011;18310;55.586;12.286;2022-11-20T03:11:58;2.65;;;1.08;;
31730;SDS011;18310;55.586;12.286;2022-11-20T03:15:01;2.33;;;1.02;;
31730;SDS011;18310;55.586;12.286;2022-11-20T03:18:06;2.60;;;0.95;;
31730;SDS011;18310;55.586;12.286;2022-11-20T03:21:10;2.78;;;1.15;;
31730;SDS011;18310;55.586;12.286;2022-11-20T03:24:16;1.83;;;0.80;;
31730;SDS011;18310;55.586;12.286;2022-11-20T03:27:20;2.22;;;0.98;;
31730;SDS011;18310;55.586;12.286;2022-11-20T03:30:24;2.15;;;1.15;;
31730;SDS011;18310;55.586;12.286;2022-11-20T03:33:31;5.93;;;1.02;;
31730;SDS011;18310;55.586;12.286;2022-11-20T03:36:36;2.58;;;0.90;;
31730;SDS011;18310;55.586;12.286;2022-11-20T03:39:41;1.88;;;0.70;;
31730;SDS011;18310;55.586;12.286;2022-11-20T03:42:48;3.13;;;1.00;;
31730;SDS011;18310;55.586;12.286;2022-11-20T03:45:51;2.78;;;0.98;;
31730;SDS011;18310;55.586;12.286;2022-11-20T03:48:55;3.00;;;1.00;;
31730;SDS011;18310;55.586;12.286;2022-11-20T03:51:59;2.63;;;1.10;;
31730;SDS011;18310;55.586;12.286;2022-11-20T03:55:03;2.10;;;1.00;;
31730;SDS011;18310;55.586;12.286;2022-11-20T03:58:09;2.63;;;1.10;;
31730;SDS011;18310;55.586;12.286;2022-11-20T04:01:15;3.78;;;0.90;;
31730;SDS011;18310;55.586;12.286;2022-11-20T04:04:20;2.88;;;0.90;;
31730;SDS011;18310;55.586;12.286;2022-11-20T04:07:24;2.90;;;1.08;;
31730;SDS011;18310;55.586;12.286;2022-11-20T04:10:27;2.70;;;0.90;;
31730;SDS011;18310;55.586;12.286;2022-11-20T04:13:32;2.03;;;0.90;;
31730;SDS011;18310;55.586;12.286;2022-11-20T04:16:36;2.28;;;0.98;;
31730;SDS011;18310;55.586;12.286;2022-11-20T04:19:39;2.20;;;1.10;;
31730;SDS011;18310;55.586;12.286;2022-11-20T04:22:43;1.88;;;0.80;;
31730;SDS011;18310;55.586;12.286;2022-11-20T04:25:46;2.72;;;1.00;;
31730;SDS011;18310;55.586;12.286;2022-11-20T04:28:51;3.05;;;0.90;;
31730;SDS011;18310;55.586;12.286;2022-11-20T04:31:54;3.30;;;1.25;;
31730;SDS011;18310;55.586;12.286;2022-11-20T04:34:58;3.20;;;1.13;;
31730;SDS011;18310;55.586;12.286;2022-11-20T04:38:01;3.47;;;1.10;;
31730;SDS011;18310;55.586;12.286;2022-11-20T04:44:20;1.83;;;0.85;;
31730;SDS011;18310;55.586;12.286;2022-11-20T04:47:23;2.90;;;1.05;;
31730;SDS011;18310;55.586;12.286;2022-11-20T04:50:27;2.10;;;0.90;;
31730;SDS011;18310;55.586;12.286;2022-11-20T04:53:31;3.65;;;1.15;;
31730;SDS011;18310;55.586;12.286;2022-11-20T04:56:35;5.53;;;1.50;;
31730;SDS011;18310;55.586;12.286;2022-11-20T04:59:39;2.85;;;1.20;;
31730;SDS011;18310;55.586;12.286;2022-11-20T05:02:43;3.35;;;1.40;;
31730;SDS011;18310;55.586;12.286;2022-11-20T05:05:46;2.15;;;0.93;;
31730;SDS011;18310;55.586;12.286;2022-11-20T05:08:50;4.03;;;1.17;;
31730;SDS011;18310;55.586;12.286;2022-11-20T05:11:53;2.35;;;1.00;;
31730;SDS011;18310;55.586;12.286;2022-11-20T05:14:58;3.03;;;1.35;;
31730;SDS011;18310;55.586;12.286;2022-11-20T05:18:02;2.90;;;1.13;;
31730;SDS011;18310;55.586;12.286;2022-11-20T05:21:06;2.65;;;1.27;;
31730;SDS011;18310;55.586;12.286;2022-11-20T05:24:11;4.28;;;1.40;;
31730;SDS011;18310;55.586;12.286;2022-11-20T05:27:14;2.88;;;1.10;;
31730;SDS011;18310;55.586;12.286;2022-11-20T05:30:19;2.80;;;1.17;;
31730;SDS011;18310;55.586;12.286;2022-11-20T05:33:23;2.33;;;0.95;;
31730;SDS011;18310;55.586;12.286;2022-11-20T05:36:26;2.97;;;1.23;;
31730;SDS011;18310;55.586;12.286;2022-11-20T05:39:30;2.88;;;1.50;;
31730;SDS011;18310;55.586;12.286;2022-11-20T05:42:33;4.47;;;1.15;;
31730;SDS011;18310;55.586;12.286;2022-11-20T05:45:38;2.05;;;0.93;;
31730;SDS011;18310;55.586;12.286;2022-11-20T05:48:42;3.17;;;1.20;;
31730;SDS011;18310;55.586;12.286;2022-11-20T05:51:48;3.00;;;1.27;;
31730;SDS011;18310;55.586;12.286;2022-11-20T05:54:51;2.92;;;1.30;;
31730;SDS011;18310;55.586;12.286;2022-11-20T05:57:55;2.67;;;1.35;;
31730;SDS011;18310;55.586;12.286;2022-11-20T06:01:04;2.67;;;1.20;;
31730;SDS011;18310;55.586;12.286;2022-11-20T06:04:10;2.83;;;1.20;;
31730;SDS011;18310;55.586;12.286;2022-11-20T06:07:13;2.13;;;1.10;;
31730;SDS011;18310;55.586;12.286;2022-11-20T06:10:17;2.65;;;1.30;;
31730;SDS011;18310;55.586;12.286;2022-11-20T06:13:20;2.50;;;1.20;;
31730;SDS011;18310;55.586;12.286;2022-11-20T06:16:25;2.25;;;1.00;;
31730;SDS011;18310;55.586;12.286;2022-11-20T06:19:29;3.22;;;1.23;;
31730;SDS011;18310;55.586;12.286;2022-11-20T06:22:32;3.95;;;1.38;;
31730;SDS011;18310;55.586;12.286;2022-11-20T06:25:37;2.20;;;1.20;;
31730;SDS011;18310;55.586;12.286;2022-11-20T06:28:41;2.42;;;1.05;;
31730;SDS011;18310;55.586;12.286;2022-11-20T06:31:46;2.17;;;1.00;;
31730;SDS011;18310;55.586;12.286;2022-11-20T06:34:50;2.13;;;1.00;;
31730;SDS011;18310;55.586;12.286;2022-11-20T06:37:53;2.13;;;0.85;;
31730;SDS011;18310;55.586;12.286;2022-11-20T06:40:58;2.92;;;1.10;;
31730;SDS011;18310;55.586;12.286;2022-11-20T06:44:03;3.33;;;1.20;;
31730;SDS011;18310;55.586;12.286;2022-11-20T06:47:09;2.53;;;1.10;;
31730;SDS011;18310;55.586;12.286;2022-11-20T06:50:13;2.70;;;1.20;;
31730;SDS011;18310;55.586;12.286;2022-11-20T06:56:20;5.30;;;1.20;;
31730;SDS011;18310;55.586;12.286;2022-11-20T06:59:24;2.97;;;1.08;;
31730;SDS011;18310;55.586;12.286;2022-11-20T07:02:29;2.85;;;1.40;;
31730;SDS011;18310;55.586;12.286;2022-11-20T07:05:33;4.10;;;1.42;;
31730;SDS011;18310;55.586;12.286;2022-11-20T07:08:39;3.15;;;1.38;;
31730;SDS011;18310;55.586;12.286;2022-11-20T07:11:43;2.72;;;1.30;;
31730;SDS011;18310;55.586;12.286;2022-11-20T07:14:46;3.00;;;1.23;;
31730;SDS011;18310;55.586;12.286;2022-11-20T07:17:51;2.83;;;1.50;;
31730;SDS011;18310;55.586;12.286;2022-11-20T07:20:55;3.13;;;1.48;;
31730;SDS011;18310;55.586;12.286;2022-11-20T07:24:02;3.15;;;1.40;;
31730;SDS011;18310;55.586;12.286;2022-11-20T07:27:07;3.53;;;1.63;;
31730;SDS011;18310;55.586;12.286;2022-11-20T07:30:11;2.85;;;1.30;;
31730;SDS011;18310;55.586;12.286;2022-11-20T07:33:17;4.40;;;1.50;;
31730;SDS011;18310;55.586;12.286;2022-11-20T07:36:21;2.92;;;1.30;;
31730;SDS011;18310;55.586;12.286;2022-11-20T07:39:25;3.22;;;1.58;;
31730;SDS011;18310;55.586;12.286;2022-11-20T07:42:28;2.97;;;1.40;;
31730;SDS011;18310;55.586;12.286;2022-11-20T07:45:32;3.72;;;1.30;;
31730;SDS011;18310;55.586;12.286;2022-11-20T07:48:37;3.92;;;1.77;;
31730;SDS011;18310;55.586;12.286;2022-11-20T07:51:41;2.53;;;1.40;;
31730;SDS011;18310;55.586;12.286;2022-11-20T07:54:44;3.22;;;1.52;;
31730;SDS011;18310;55.586;12.286;2022-11-20T07:57:53;2.75;;;1.23;;
31730;SDS011;18310;55.586;12.286;2022-11-20T08:01:02;3.45;;;1.25;;
31730;SDS011;18310;55.586;12.286;2022-11-20T08:04:08;3.28;;;1.60;;
31730;SDS011;18310;55.586;12.286;2022-11-20T08:07:12;3.55;;;1.63;;
31730;SDS011;18310;55.586;12.286;2022-11-20T08:10:23;2.40;;;1.23;;
31730;SDS011;18310;55.586;12.286;2022-11-20T08:13:28;4.32;;;1.50;;
31730;SDS011;18310;55.586;12.286;2022-11-20T08:16:50;3.65;;;1.80;;
31730;SDS011;18310;55.586;12.286;2022-11-20T08:19:56;3.55;;;1.60;;
31730;SDS011;18310;55.586;12.286;2022-11-20T08:23:05;3.03;;;1.33;;
31730;SDS011;18310;55.586;12.286;2022-11-20T08:26:10;5.25;;;1.55;;
31730;SDS011;18310;55.586;12.286;2022-11-20T08:29:14;3.30;;;1.50;;
31730;SDS011;18310;55.586;12.286;2022-11-20T08:32:17;3.25;;;1.38;;
31730;SDS011;18310;55.586;12.286;2022-11-20T08:35:22;2.67;;;1.23;;
31730;SDS011;18310;55.586;12.286;2022-11-20T08:38:25;4.63;;;1.50;;
31730;SDS011;18310;55.586;12.286;2022-11-20T08:41:29;2.97;;;1.48;;
31730;SDS011;18310;55.586;12.286;2022-11-20T08:44:34;3.97;;;1.60;;
31730;SDS011;18310;55.586;12.286;2022-11-20T08:47:38;3.30;;;1.30;;
31730;SDS011;18310;55.586;12.286;2022-11-20T08:56:50;3.13;;;1.20;;
31730;SDS011;18310;55.586;12.286;2022-11-20T08:59:54;5.20;;;1.43;;
31730;SDS011;18310;55.586;12.286;2022-11-20T09:03:07;2.08;;;1.10;;
31730;SDS011;18310;55.586;12.286;2022-11-20T09:06:14;2.80;;;1.35;;
31730;SDS011;18310;55.586;12.286;2022-11-20T09:09:18;4.82;;;1.42;;
31730;SDS011;18310;55.586;12.286;2022-11-20T09:12:22;3.17;;;1.48;;
31730;SDS011;18310;55.586;12.286;2022-11-20T09:15:26;3.38;;;1.60;;
31730;SDS011;18310;55.586;12.286;2022-11-20T09:18:29;3.45;;;1.50;;
31730;SDS011;18310;55.586;12.286;2022-11-20T09:21:35;4.38;;;1.33;;
31730;SDS011;18310;55.586;12.286;2022-11-20T09:24:39;3.15;;;1.63;;
31730;SDS011;18310;55.586;12.286;2022-11-20T09:27:44;3.10;;;1.60;;
31730;SDS011;18310;55.586;12.286;2022-11-20T09:30:47;2.28;;;1.33;;
31730;SDS011;18310;55.586;12.286;2022-11-20T09:33:51;4.93;;;1.55;;
31730;SDS011;18310;55.586;12.286;2022-11-20T09:36:57;5.10;;;1.80;;
31730;SDS011;18310;55.586;12.286;2022-11-20T09:40:09;4.50;;;1.63;;
31730;SDS011;18310;55.586;12.286;2022-11-20T09:43:28;2.90;;;1.60;;
31730;SDS011;18310;55.586;12.286;2022-11-20T09:46:48;3.80;;;1.88;;
31730;SDS011;18310;55.586;12.286;2022-11-20T09:50:07;3.72;;;1.92;;
31730;SDS011;18310;55.586;12.286;2022-11-20T09:53:33;4.95;;;1.73;;
31730;SDS011;18310;55.586;12.286;2022-11-20T09:56:50;4.82;;;1.40;;
31730;SDS011;18310;55.586;12.286;2022-11-20T10:00:00;2.85;;;1.38;;
31730;SDS011;18310;55.586;12.286;2022-11-20T10:03:11;3.95;;;1.63;;
31730;SDS011;18310;55.586;12.286;2022-11-20T10:06:24;3.45;;;1.42;;
31730;SDS011;18310;55.586;12.286;2022-11-20T10:09:36;6.93;;;1.70;;
31730;SDS011;18310;55.586;12.286;2022-11-20T10:12:50;3.10;;;1.40;;
31730;SDS011;18310;55.586;12.286;2022-11-20T10:16:16;2.42;;;1.23;;
31730;SDS011;18310;55.586;12.286;2022-11-20T10:19:44;2.30;;;1.10;;
31730;SDS011;18310;55.586;12.286;2022-11-20T10:23:08;2.53;;;1.10;;
31730;SDS011;18310;55.586;12.286;2022-11-20T10:26:31;2.80;;;1.35;;
31730;SDS011;18310;55.586;12.286;2022-11-20T10:29:51;3.30;;;1.50;;
31730;SDS011;18310;55.586;12.286;2022-11-20T10:33:08;2.90;;;1.60;;
31730;SDS011;18310;55.586;12.286;2022-11-20T10:36:21;3.03;;;1.52;;
31730;SDS011;18310;55.586;12.286;2022-11-20T10:39:32;2.67;;;1.40;;
31730;SDS011;18310;55.586;12.286;2022-11-20T10:42:42;2.50;;;1.23;;
31730;SDS011;18310;55.586;12.286;2022-11-20T10:45:53;4.18;;;1.35;;
31730;SDS011;18310;55.586;12.286;2022-11-20T10:49:03;2.58;;;1.25;;
31730;SDS011;18310;55.586;12.286;2022-11-20T10:52:18;3.50;;;1.58;;
31730;SDS011;18310;55.586;12.286;2022-11-20T10:55:33;1.85;;;1.00;;
31730;SDS011;18310;55.586;12.286;2022-11-20T10:58:52;3.10;;;1.30;;
31730;SDS011;18310;55.586;12.286;2022-11-20T11:02:22;2.42;;;1.35;;
31730;SDS011;18310;55.586;12.286;2022-11-20T11:05:36;2.63;;;1.23;;
31730;SDS011;18310;55.586;12.286;2022-11-20T11:08:46;4.07;;;1.55;;
31730;SDS011;18310;55.586;12.286;2022-11-20T11:11:53;2.63;;;1.40;;
31730;SDS011;18310;55.586;12.286;2022-11-20T11:18:01;3.75;;;1.27;;
31730;SDS011;18310;55.586;12.286;2022-11-20T11:21:05;2.08;;;1.10;;
31730;SDS011;18310;55.586;12.286;2022-11-20T11:24:15;3.50;;;1.45;;
31730;SDS011;18310;55.586;12.286;2022-11-20T11:27:45;2.10;;;0.90;;
31730;SDS011;18310;55.586;12.286;2022-11-20T11:30:51;2.20;;;0.80;;
31730;SDS011;18310;55.586;12.286;2022-11-20T11:34:03;2.33;;;1.13;;
31730;SDS011;18310;55.586;12.286;2022-11-20T11:37:11;2.47;;;1.00;;
31730;SDS011;18310;55.586;12.286;2022-11-20T11:40:21;2.47;;;1.00;;
31730;SDS011;18310;55.586;12.286;2022-11-20T11:43:28;4.65;;;1.35;;
31730;SDS011;18310;55.586;12.286;2022-11-20T11:46:55;2.58;;;1.33;;
31730;SDS011;18310;55.586;12.286;2022-11-20T11:50:01;2.90;;;1.35;;
31730;SDS011;18310;55.586;12.286;2022-11-20T11:53:21;2.58;;;1.20;;
31730;SDS011;18310;55.586;12.286;2022-11-20T11:56:27;5.15;;;1.40;;
31730;SDS011;18310;55.586;12.286;2022-11-20T11:59:37;10.70;;;1.40;;
31730;SDS011;18310;55.586;12.286;2022-11-20T12:02:56;2.35;;;1.10;;
31730;SDS011;18310;55.586;12.286;2022-11-20T12:06:13;4.55;;;1.20;;
31730;SDS011;18310;55.586;12.286;2022-11-20T12:09:19;2.67;;;1.33;;
31730;SDS011;18310;55.586;12.286;2022-11-20T12:12:29;3.47;;;1.30;;
31730;SDS011;18310;55.586;12.286;2022-11-20T12:15:42;2.42;;;1.08;;
31730;SDS011;18310;55.586;12.286;2022-11-20T12:18:51;4.78;;;1.55;;
31730;SDS011;18310;55.586;12.286;2022-11-20T12:21:57;3.85;;;1.08;;
31730;SDS011;18310;55.586;12.286;2022-11-20T12:25:08;2.83;;;1.17;;
31730;SDS011;18310;55.586;12.286;2022-11-20T12:28:22;2.85;;;1.33;;
31730;SDS011;18310;55.586;12.286;2022-11-20T12:32:04;2.88;;;1.33;;
31730;SDS011;18310;55.586;12.286;2022-11-20T12:35:41;3.22;;;1.35;;
31730;SDS011;18310;55.586;12.286;2022-11-20T12:39:07;3.00;;;1.15;;
31730;SDS011;18310;55.586;12.286;2022-11-20T12:42:39;2.80;;;1.20;;
31730;SDS011;18310;55.586;12.286;2022-11-20T12:46:17;2.08;;;1.02;;
31730;SDS011;18310;55.586;12.286;2022-11-20T12:49:36;2.50;;;1.20;;
31730;SDS011;18310;55.586;12.286;2022-11-20T12:52:51;3.58;;;1.05;;
31730;SDS011;18310;55.586;12.286;2022-11-20T12:56:03;3.30;;;1.38;;
31730;SDS011;18310;55.586;12.286;2022-11-20T12:59:23;3.28;;;1.33;;
31730;SDS011;18310;55.586;12.286;2022-11-20T13:02:58;3.40;;;1.40;;
31730;SDS011;18310;55.586;12.286;2022-11-20T13:06:36;2.65;;;1.20;;
31730;SDS011;18310;55.586;12.286;2022-11-20T13:09:46;2.42;;;1.00;;
31730;SDS011;18310;55.586;12.286;2022-11-20T13:12:54;3.47;;;1.25;;
31730;SDS011;18310;55.586;12.286;2022-11-20T13:16:04;2.38;;;1.02;;
31730;SDS011;18310;55.586;12.286;2022-11-20T13:19:15;3.20;;;1.30;;
31730;SDS011;18310;55.586;12.286;2022-11-20T13:22:24;5.05;;;1.23;;
31730;SDS011;18310;55.586;12.286;2022-11-20T13:25:31;2.67;;;1.42;;
31730;SDS011;18310;55.586;12.286;2022-11-20T13:28:37;2.92;;;1.15;;
31730;SDS011;18310;55.586;12.286;2022-11-20T13:31:44;4.18;;;1.10;;
31730;SDS011;18310;55.586;12.286;2022-11-20T13:34:53;2.45;;;1.20;;
31730;SDS011;18310;55.586;12.286;2022-11-20T13:38:02;3.35;;;1.42;;
31730;SDS011;18310;55.586;12.286;2022-11-20T13:41:22;2.45;;;1.20;;
31730;SDS011;18310;55.586;12.286;2022-11-20T13:44:33;3.05;;;1.40;;
31730;SDS011;18310;55.586;12.286;2022-11-20T13:47:47;3.08;;;1.40;;
31730;SDS011;18310;55.586;12.286;2022-11-20T13:50:55;3.90;;;1.52;;
31730;SDS011;18310;55.586;12.286;2022-11-20T13:54:22;3.75;;;1.40;;
31730;SDS011;18310;55.586;12.286;2022-11-20T13:58:09;2.63;;;1.45;;
31730;SDS011;18310;55.586;12.286;2022-11-20T14:01:33;4.75;;;1.75;;
31730;SDS011;18310;55.586;12.286;2022-11-20T14:04:38;6.03;;;1.60;;
31730;SDS011;18310;55.586;12.286;2022-11-20T14:07:49;3.30;;;1.50;;
31730;SDS011;18310;55.586;12.286;2022-11-20T14:11:03;3.45;;;1.65;;
31730;SDS011;18310;55.586;12.286;2022-11-20T14:14:15;7.97;;;1.55;;
31730;SDS011;18310;55.586;12.286;2022-11-20T14:17:23;3.17;;;1.57;;
31730;SDS011;18310;55.586;12.286;2022-11-20T14:20:33;2.92;;;1.60;;
31730;SDS011;18310;55.586;12.286;2022-11-20T14:23:37;7.40;;;2.17;;
31730;SDS011;18310;55.586;12.286;2022-11-20T14:26:41;4.68;;;1.70;;
31730;SDS011;18310;55.586;12.286;2022-11-20T14:29:49;4.30;;;1.55;;
31730;SDS011;18310;55.586;12.286;2022-11-20T14:32:54;8.68;;;1.98;;
31730;SDS011;18310;55.586;12.286;2022-11-20T14:36:05;5.95;;;2.05;;
31730;SDS011;18310;55.586;12.286;2022-11-20T14:39:22;3.72;;;1.63;;
31730;SDS011;18310;55.586;12.286;2022-11-20T14:42:51;4.97;;;1.95;;
31730;SDS011;18310;55.586;12.286;2022-11-20T14:46:02;2.60;;;1.50;;
31730;SDS011;18310;55.586;12.286;2022-11-20T14:49:27;4.03;;;2.00;;
31730;SDS011;18310;55.586;12.286;2022-11-20T14:53:21;5.93;;;2.45;;
31730;SDS011;18310;55.586;12.286;2022-11-20T14:56:29;5.22;;;2.78;;
31730;SDS011;18310;55.586;12.286;2022-11-20T14:59:35;5.78;;;2.88;;
31730;SDS011;18310;55.586;12.286;2022-11-20T15:02:51;6.28;;;3.00;;
31730;SDS011;18310;55.586;12.286;2022-11-20T15:06:03;6.57;;;3.75;;
31730;SDS011;18310;55.586;12.286;2022-11-20T15:09:13;6.88;;;4.20;;
31730;SDS011;18310;55.586;12.286;2022-11-20T15:12:20;7.45;;;3.83;;
31730;SDS011;18310;55.586;12.286;2022-11-20T15:15:30;6.80;;;4.32;;
31730;SDS011;18310;55.586;12.286;2022-11-20T15:18:48;7.57;;;4.60;;
31730;SDS011;18310;55.586;12.286;2022-11-20T15:21:55;6.85;;;3.78;;
31730;SDS011;18310;55.586;12.286;2022-11-20T15:25:11;8.68;;;4.45;;
31730;SDS011;18310;55.586;12.286;2022-11-20T15:28:21;7.82;;;4.80;;
31730;SDS011;18310;55.586;12.286;2022-11-20T15:31:39;7.47;;;3.80;;
31730;SDS011;18310;55.586;12.286;2022-11-20T15:34:49;6.03;;;3.10;;
31730;SDS011;18310;55.586;12.286;2022-11-20T15:38:02;7.18;;;3.03;;
31730;SDS011;18310;55.586;12.286;2022-11-20T15:41:51;5.32;;;2.85;;
31730;SDS011;18310;55.586;12.286;2022-11-20T15:44:58;6.68;;;3.10;;
31730;SDS011;18310;55.586;12.286;2022-11-20T15:48:12;7.77;;;3.40;;
31730;SDS011;18310;55.586;12.286;2022-11-20T15:51:24;8.45;;;3.15;;
31730;SDS011;18310;55.586;12.286;2022-11-20T15:54:35;6.93;;;3.58;;
31730;SDS011;18310;55.586;12.286;2022-11-20T15:58:00;7.38;;;3.55;;
31730;SDS011;18310;55.586;12.286;2022-11-20T16:02:04;7.13;;;3.90;;
31730;SDS011;18310;55.586;12.286;2022-11-20T16:05:25;7.50;;;4.10;;
31730;SDS011;18310;55.586;12.286;2022-11-20T16:09:22;7.28;;;3.67;;
31730;SDS011;18310;55.586;12.286;2022-11-20T16:16:32;9.15;;;3.60;;
31730;SDS011;18310;55.586;12.286;2022-11-20T16:20:02;10.38;;;5.72;;
31730;SDS011;18310;55.586;12.286;2022-11-20T16:23:15;10.13;;;4.88;;
31730;SDS011;18310;55.586;12.286;2022-11-20T16:26:27;12.63;;;5.45;;
31730;SDS011;18310;55.586;12.286;2022-11-20T16:29:32;11.52;;;5.53;;
31730;SDS011;18310;55.586;12.286;2022-11-20T16:32:38;11.63;;;5.57;;
31730;SDS011;18310;55.586;12.286;2022-11-20T16:35:45;12.68;;;5.03;;
31730;SDS011;18310;55.586;12.286;2022-11-20T16:38:51;10.25;;;5.00;;
31730;SDS011;18310;55.586;12.286;2022-11-20T16:42:02;10.48;;;5.30;;
31730;SDS011;18310;55.586;12.286;2022-11-20T16:45:13;7.55;;;4.53;;
31730;SDS011;18310;55.586;12.286;2022-11-20T16:48:26;7.70;;;5.03;;
31730;SDS011;18310;55.586;12.286;2022-11-20T16:51:31;9.23;;;4.82;;
31730;SDS011;18310;55.586;12.286;2022-11-20T16:54:40;13.75;;;6.28;;
31730;SDS011;18310;55.586;12.286;2022-11-20T16:57:50;10.65;;;5.18;;
31730;SDS011;18310;55.586;12.286;2022-11-20T17:00:54;8.63;;;4.22;;
31730;SDS011;18310;55.586;12.286;2022-11-20T17:04:04;9.00;;;4.32;;
31730;SDS011;18310;55.586;12.286;2022-11-20T17:07:09;10.57;;;4.38;;
31730;SDS011;18310;55.586;12.286;2022-11-20T17:10:14;12.07;;;4.25;;
31730;SDS011;18310;55.586;12.286;2022-11-20T17:13:32;10.13;;;4.65;;
31730;SDS011;18310;55.586;12.286;2022-11-20T17:16:44;9.57;;;4.78;;
31730;SDS011;18310;55.586;12.286;2022-11-20T17:19:48;8.70;;;4.28;;
31730;SDS011;18310;55.586;12.286;2022-11-20T17:22:52;10.77;;;4.38;;
31730;SDS011;18310;55.586;12.286;2022-11-20T17:25:59;9.68;;;4.75;;
31730;SDS011;18310;55.586;12.286;2022-11-20T17:29:09;8.18;;;4.35;;
31730;SDS011;18310;55.586;12.286;2022-11-20T17:32:14;10.65;;;4.55;;
31730;SDS011;18310;55.586;12.286;2022-11-20T17:35:18;9.73;;;4.68;;
31730;SDS011;18310;55.586;12.286;2022-11-20T17:38:21;9.60;;;4.72;;
31730;SDS011;18310;55.586;12.286;2022-11-20T17:41:26;10.57;;;5.53;;
31730;SDS011;18310;55.586;12.286;2022-11-20T17:44:33;10.98;;;5.28;;
31730;SDS011;18310;55.586;12.286;2022-11-20T17:47:37;9.15;;;5.65;;
31730;SDS011;18310;55.586;12.286;2022-11-20T17:50:43;11.88;;;6.13;;
31730;SDS011;18310;55.586;12.286;2022-11-20T17:53:48;12.38;;;6.68;;
31730;SDS011;18310;55.586;12.286;2022-11-20T17:56:54;13.38;;;6.75;;
31730;SDS011;18310;55.586;12.286;2022-11-20T18:00:30;12.82;;;7.03;;
31730;SDS011;18310;55.586;12.286;2022-11-20T18:03:35;12.00;;;6.28;;
31730;SDS011;18310;55.586;12.286;2022-11-20T18:06:39;12.57;;;7.15;;
31730;SDS011;18310;55.586;12.286;2022-11-20T18:09:44;11.57;;;6.35;;
31730;SDS011;18310;55.586;12.286;2022-11-20T18:12:47;11.13;;;5.53;;
31730;SDS011;18310;55.586;12.286;2022-11-20T18:16:05;10.23;;;4.97;;
31730;SDS011;18310;55.586;12.286;2022-11-20T18:19:10;9.73;;;5.15;;
31730;SDS011;18310;55.586;12.286;2022-11-20T18:22:17;9.82;;;5.93;;
31730;SDS011;18310;55.586;12.286;2022-11-20T18:25:21;13.25;;;5.63;;
31730;SDS011;18310;55.586;12.286;2022-11-20T18:28:25;10.05;;;5.88;;
31730;SDS011;18310;55.586;12.286;2022-11-20T18:31:29;13.50;;;5.85;;
31730;SDS011;18310;55.586;12.286;2022-11-20T18:34:34;12.93;;;5.47;;
31730;SDS011;18310;55.586;12.286;2022-11-20T18:37:38;12.07;;;6.40;;
31730;SDS011;18310;55.586;12.286;2022-11-20T18:40:41;11.05;;;6.05;;
31730;SDS011;18310;55.586;12.286;2022-11-20T18:43:46;10.50;;;5.78;;
31730;SDS011;18310;55.586;12.286;2022-11-20T18:47:12;15.48;;;5.72;;
31730;SDS011;18310;55.586;12.286;2022-11-20T18:50:18;11.48;;;6.38;;
31730;SDS011;18310;55.586;12.286;2022-11-20T18:53:21;14.43;;;6.65;;
31730;SDS011;18310;55.586;12.286;2022-11-20T18:56:25;9.15;;;5.90;;
31730;SDS011;18310;55.586;12.286;2022-11-20T19:02:36;11.32;;;5.78;;
31730;SDS011;18310;55.586;12.286;2022-11-20T19:05:43;10.50;;;5.30;;
31730;SDS011;18310;55.586;12.286;2022-11-20T19:08:47;11.80;;;6.65;;
31730;SDS011;18310;55.586;12.286;2022-11-20T19:11:50;11.80;;;6.45;;
31730;SDS011;18310;55.586;12.286;2022-11-20T19:14:54;13.05;;;6.50;;
31730;SDS011;18310;55.586;12.286;2022-11-20T19:17:59;10.57;;;6.13;;